sensor_id;sensor_type;location;lat;lon;timestamp;P1;durP1;ratioP1;P2;durP2;ratioP2
84923;SDS011;75286;52.218;5.180;2024-03-17T00:01:32;6.47;;;2.70;;
84923;SDS011;75286;52.218;5.180;2024-03-17T00:03:57;9.07;;;2.92;;
84923;SDS011;75286;52.218;5.180;2024-03-17T00:06:24;10.93;;;2.85;;
84923;SDS011;75286;52.218;5.180;2024-03-17T00:08:50;9.55;;;2.97;;
84923;SDS011;75286;52.218;5.180;2024-03-17T00:11:21;7.53;;;2.75;;
84923;SDS011;75286;52.218;5.180;2024-03-17T00:13:46;12.90;;;4.28;;
84923;SDS011;75286;52.218;5.180;2024-03-17T00:16:12;12.27;;;4.25;;
84923;SDS011;75286;52.218;5.180;2024-03-17T00:18:38;11.02;;;3.97;;
84923;SDS011;75286;52.218;5.180;2024-03-17T00:21:06;10.63;;;3.22;;
84923;SDS011;75286;52.218;5.180;2024-03-17T00:23:31;10.50;;;3.67;;
84923;SDS011;75286;52.218;5.180;2024-03-17T00:25:57;12.50;;;3.70;;
84923;SDS011;75286;52.218;5.180;2024-03-17T00:28:22;8.25;;;4.28;;
84923;SDS011;75286;52.218;5.180;2024-03-17T00:30:48;9.85;;;3.67;;
84923;SDS011;75286;52.218;5.180;2024-03-17T00:33:13;11.80;;;3.97;;
84923;SDS011;75286;52.218;5.180;2024-03-17T00:35:39;9.95;;;4.22;;
84923;SDS011;75286;52.218;5.180;2024-03-17T00:38:04;14.52;;;5.18;;
84923;SDS011;75286;52.218;5.180;2024-03-17T00:40:35;9.68;;;3.53;;
84923;SDS011;75286;52.218;5.180;2024-03-17T00:43:06;11.00;;;3.38;;
84923;SDS011;75286;52.218;5.180;2024-03-17T00:45:31;9.82;;;3.97;;
84923;SDS011;75286;52.218;5.180;2024-03-17T00:47:57;10.60;;;4.32;;
84923;SDS011;75286;52.218;5.180;2024-03-17T00:50:22;11.68;;;4.57;;
84923;SDS011;75286;52.218;5.180;2024-03-17T00:52:48;10.18;;;3.70;;
84923;SDS011;75286;52.218;5.180;2024-03-17T00:55:13;11.45;;;4.90;;
84923;SDS011;75286;52.218;5.180;2024-03-17T00:57:40;11.93;;;4.03;;
84923;SDS011;75286;52.218;5.180;2024-03-17T01:00:06;11.43;;;4.15;;
84923;SDS011;75286;52.218;5.180;2024-03-17T01:02:32;11.13;;;3.80;;
84923;SDS011;75286;52.218;5.180;2024-03-17T01:04:57;7.35;;;3.33;;
84923;SDS011;75286;52.218;5.180;2024-03-17T01:07:22;10.43;;;3.85;;
84923;SDS011;75286;52.218;5.180;2024-03-17T01:09:48;11.93;;;4.30;;
84923;SDS011;75286;52.218;5.180;2024-03-17T01:12:13;11.32;;;3.60;;
84923;SDS011;75286;52.218;5.180;2024-03-17T01:14:39;9.18;;;3.42;;
84923;SDS011;75286;52.218;5.180;2024-03-17T01:17:04;8.45;;;3.25;;
84923;SDS011;75286;52.218;5.180;2024-03-17T01:19:30;9.45;;;3.13;;
84923;SDS011;75286;52.218;5.180;2024-03-17T01:21:56;9.77;;;2.92;;
84923;SDS011;75286;52.218;5.180;2024-03-17T01:24:21;8.23;;;2.70;;
84923;SDS011;75286;52.218;5.180;2024-03-17T01:26:47;10.82;;;3.00;;
84923;SDS011;75286;52.218;5.180;2024-03-17T01:29:12;10.18;;;4.00;;
84923;SDS011;75286;52.218;5.180;2024-03-17T01:31:38;7.40;;;3.05;;
84923;SDS011;75286;52.218;5.180;2024-03-17T01:34:03;9.02;;;3.58;;
84923;SDS011;75286;52.218;5.180;2024-03-17T01:36:29;11.32;;;3.40;;
84923;SDS011;75286;52.218;5.180;2024-03-17T01:38:57;15.05;;;4.63;;
84923;SDS011;75286;52.218;5.180;2024-03-17T01:41:22;8.77;;;3.55;;
84923;SDS011;75286;52.218;5.180;2024-03-17T01:43:48;8.15;;;3.05;;
84923;SDS011;75286;52.218;5.180;2024-03-17T01:46:14;9.30;;;3.42;;
84923;SDS011;75286;52.218;5.180;2024-03-17T01:48:42;10.23;;;3.38;;
84923;SDS011;75286;52.218;5.180;2024-03-17T01:51:08;13.00;;;3.50;;
84923;SDS011;75286;52.218;5.180;2024-03-17T01:53:36;9.38;;;3.80;;
84923;SDS011;75286;52.218;5.180;2024-03-17T01:56:02;8.40;;;3.50;;
84923;SDS011;75286;52.218;5.180;2024-03-17T01:58:30;8.45;;;3.08;;
84923;SDS011;75286;52.218;5.180;2024-03-17T02:00:55;7.93;;;3.50;;
84923;SDS011;75286;52.218;5.180;2024-03-17T02:03:21;10.50;;;3.67;;
84923;SDS011;75286;52.218;5.180;2024-03-17T02:05:47;9.32;;;4.13;;
84923;SDS011;75286;52.218;5.180;2024-03-17T02:08:12;10.93;;;3.75;;
84923;SDS011;75286;52.218;5.180;2024-03-17T02:10:38;8.18;;;3.63;;
84923;SDS011;75286;52.218;5.180;2024-03-17T02:13:03;7.82;;;3.67;;
84923;SDS011;75286;52.218;5.180;2024-03-17T02:15:30;11.50;;;5.30;;
84923;SDS011;75286;52.218;5.180;2024-03-17T02:17:56;11.35;;;4.85;;
84923;SDS011;75286;52.218;5.180;2024-03-17T02:20:22;11.55;;;4.10;;
84923;SDS011;75286;52.218;5.180;2024-03-17T02:23:10;9.75;;;3.90;;
84923;SDS011;75286;52.218;5.180;2024-03-17T02:25:36;9.13;;;3.72;;
84923;SDS011;75286;52.218;5.180;2024-03-17T02:28:02;10.65;;;4.40;;
84923;SDS011;75286;52.218;5.180;2024-03-17T02:30:27;10.10;;;4.47;;
84923;SDS011;75286;52.218;5.180;2024-03-17T02:32:53;11.63;;;4.75;;
84923;SDS011;75286;52.218;5.180;2024-03-17T02:35:20;9.00;;;3.97;;
84923;SDS011;75286;52.218;5.180;2024-03-17T02:37:46;9.15;;;4.82;;
84923;SDS011;75286;52.218;5.180;2024-03-17T02:40:12;9.70;;;4.47;;
84923;SDS011;75286;52.218;5.180;2024-03-17T02:42:37;9.98;;;4.43;;
84923;SDS011;75286;52.218;5.180;2024-03-17T02:45:03;11.95;;;4.20;;
84923;SDS011;75286;52.218;5.180;2024-03-17T02:47:29;12.90;;;5.72;;
84923;SDS011;75286;52.218;5.180;2024-03-17T02:49:55;10.02;;;4.70;;
84923;SDS011;75286;52.218;5.180;2024-03-17T02:52:20;7.80;;;3.65;;
84923;SDS011;75286;52.218;5.180;2024-03-17T02:54:45;11.00;;;4.60;;
84923;SDS011;75286;52.218;5.180;2024-03-17T02:57:11;9.95;;;4.25;;
84923;SDS011;75286;52.218;5.180;2024-03-17T02:59:36;9.50;;;3.83;;
84923;SDS011;75286;52.218;5.180;2024-03-17T03:02:01;9.00;;;3.92;;
84923;SDS011;75286;52.218;5.180;2024-03-17T03:04:27;9.27;;;4.40;;
84923;SDS011;75286;52.218;5.180;2024-03-17T03:06:52;11.50;;;4.32;;
84923;SDS011;75286;52.218;5.180;2024-03-17T03:09:18;10.88;;;4.20;;
84923;SDS011;75286;52.218;5.180;2024-03-17T03:11:51;9.00;;;3.63;;
84923;SDS011;75286;52.218;5.180;2024-03-17T03:14:17;10.43;;;4.88;;
84923;SDS011;75286;52.218;5.180;2024-03-17T03:16:44;8.65;;;4.18;;
84923;SDS011;75286;52.218;5.180;2024-03-17T03:19:09;12.32;;;5.25;;
84923;SDS011;75286;52.218;5.180;2024-03-17T03:21:38;10.15;;;4.32;;
84923;SDS011;75286;52.218;5.180;2024-03-17T03:24:03;7.78;;;4.22;;
84923;SDS011;75286;52.218;5.180;2024-03-17T03:26:28;10.02;;;4.78;;
84923;SDS011;75286;52.218;5.180;2024-03-17T03:28:54;8.05;;;4.45;;
84923;SDS011;75286;52.218;5.180;2024-03-17T03:31:20;7.43;;;4.35;;
84923;SDS011;75286;52.218;5.180;2024-03-17T03:33:46;9.10;;;5.07;;
84923;SDS011;75286;52.218;5.180;2024-03-17T03:36:13;10.95;;;4.35;;
84923;SDS011;75286;52.218;5.180;2024-03-17T03:38:40;12.45;;;5.35;;
84923;SDS011;75286;52.218;5.180;2024-03-17T03:41:09;11.10;;;4.35;;
84923;SDS011;75286;52.218;5.180;2024-03-17T03:43:44;14.52;;;5.82;;
84923;SDS011;75286;52.218;5.180;2024-03-17T03:46:11;10.93;;;4.72;;
84923;SDS011;75286;52.218;5.180;2024-03-17T03:48:37;10.30;;;4.70;;
84923;SDS011;75286;52.218;5.180;2024-03-17T03:51:05;9.82;;;4.68;;
84923;SDS011;75286;52.218;5.180;2024-03-17T03:53:32;11.90;;;4.65;;
84923;SDS011;75286;52.218;5.180;2024-03-17T03:55:58;10.00;;;4.60;;
84923;SDS011;75286;52.218;5.180;2024-03-17T03:58:27;11.10;;;4.95;;
84923;SDS011;75286;52.218;5.180;2024-03-17T04:00:54;11.30;;;5.00;;
84923;SDS011;75286;52.218;5.180;2024-03-17T04:03:20;9.65;;;4.80;;
84923;SDS011;75286;52.218;5.180;2024-03-17T04:05:45;9.48;;;4.88;;
84923;SDS011;75286;52.218;5.180;2024-03-17T04:08:11;11.68;;;5.05;;
84923;SDS011;75286;52.218;5.180;2024-03-17T04:10:36;9.70;;;5.47;;
84923;SDS011;75286;52.218;5.180;2024-03-17T04:13:01;9.93;;;5.40;;
84923;SDS011;75286;52.218;5.180;2024-03-17T04:15:28;10.95;;;5.25;;
84923;SDS011;75286;52.218;5.180;2024-03-17T04:17:53;11.43;;;6.47;;
84923;SDS011;75286;52.218;5.180;2024-03-17T04:20:19;11.70;;;5.22;;
84923;SDS011;75286;52.218;5.180;2024-03-17T04:22:44;13.90;;;6.28;;
84923;SDS011;75286;52.218;5.180;2024-03-17T04:25:10;9.77;;;5.65;;
84923;SDS011;75286;52.218;5.180;2024-03-17T04:27:36;11.88;;;5.72;;
84923;SDS011;75286;52.218;5.180;2024-03-17T04:30:01;11.52;;;5.90;;
84923;SDS011;75286;52.218;5.180;2024-03-17T04:32:30;11.20;;;6.05;;
84923;SDS011;75286;52.218;5.180;2024-03-17T04:34:56;13.02;;;5.85;;
84923;SDS011;75286;52.218;5.180;2024-03-17T04:37:22;10.68;;;6.40;;
84923;SDS011;75286;52.218;5.180;2024-03-17T04:39:47;10.45;;;5.30;;
84923;SDS011;75286;52.218;5.180;2024-03-17T04:42:13;10.60;;;5.63;;
84923;SDS011;75286;52.218;5.180;2024-03-17T04:44:40;11.38;;;6.10;;
84923;SDS011;75286;52.218;5.180;2024-03-17T04:47:06;10.00;;;5.85;;
84923;SDS011;75286;52.218;5.180;2024-03-17T04:49:42;10.50;;;5.55;;
84923;SDS011;75286;52.218;5.180;2024-03-17T04:52:12;10.88;;;6.65;;
84923;SDS011;75286;52.218;5.180;2024-03-17T04:54:38;11.63;;;5.80;;
84923;SDS011;75286;52.218;5.180;2024-03-17T04:57:03;10.43;;;5.22;;
84923;SDS011;75286;52.218;5.180;2024-03-17T04:59:29;11.98;;;5.82;;
84923;SDS011;75286;52.218;5.180;2024-03-17T05:01:55;12.50;;;5.93;;
84923;SDS011;75286;52.218;5.180;2024-03-17T05:04:20;10.57;;;6.45;;
84923;SDS011;75286;52.218;5.180;2024-03-17T05:06:46;10.20;;;6.15;;
84923;SDS011;75286;52.218;5.180;2024-03-17T05:09:17;10.27;;;5.82;;
84923;SDS011;75286;52.218;5.180;2024-03-17T05:11:44;11.48;;;5.93;;
84923;SDS011;75286;52.218;5.180;2024-03-17T05:14:09;13.50;;;6.13;;
84923;SDS011;75286;52.218;5.180;2024-03-17T05:16:35;12.00;;;5.97;;
84923;SDS011;75286;52.218;5.180;2024-03-17T05:19:01;13.80;;;7.20;;
84923;SDS011;75286;52.218;5.180;2024-03-17T05:21:26;12.25;;;5.97;;
84923;SDS011;75286;52.218;5.180;2024-03-17T05:23:55;10.50;;;6.28;;
84923;SDS011;75286;52.218;5.180;2024-03-17T05:26:23;9.75;;;5.40;;
84923;SDS011;75286;52.218;5.180;2024-03-17T05:28:52;11.23;;;6.50;;
84923;SDS011;75286;52.218;5.180;2024-03-17T05:31:18;12.18;;;6.15;;
84923;SDS011;75286;52.218;5.180;2024-03-17T05:33:46;11.85;;;6.32;;
84923;SDS011;75286;52.218;5.180;2024-03-17T05:36:12;9.80;;;5.40;;
84923;SDS011;75286;52.218;5.180;2024-03-17T05:38:37;10.73;;;5.22;;
84923;SDS011;75286;52.218;5.180;2024-03-17T05:41:03;11.40;;;6.25;;
84923;SDS011;75286;52.218;5.180;2024-03-17T05:43:36;8.70;;;5.30;;
84923;SDS011;75286;52.218;5.180;2024-03-17T05:46:03;11.15;;;6.00;;
84923;SDS011;75286;52.218;5.180;2024-03-17T05:48:42;12.77;;;5.40;;
84923;SDS011;75286;52.218;5.180;2024-03-17T05:51:11;15.32;;;5.10;;
84923;SDS011;75286;52.218;5.180;2024-03-17T05:53:38;11.52;;;5.72;;
84923;SDS011;75286;52.218;5.180;2024-03-17T05:56:05;11.85;;;5.85;;
84923;SDS011;75286;52.218;5.180;2024-03-17T05:58:36;9.85;;;5.80;;
84923;SDS011;75286;52.218;5.180;2024-03-17T06:01:02;11.02;;;5.22;;
84923;SDS011;75286;52.218;5.180;2024-03-17T06:03:28;8.48;;;5.82;;
84923;SDS011;75286;52.218;5.180;2024-03-17T06:05:53;8.77;;;5.25;;
84923;SDS011;75286;52.218;5.180;2024-03-17T06:08:19;11.23;;;6.05;;
84923;SDS011;75286;52.218;5.180;2024-03-17T06:10:45;11.05;;;5.53;;
84923;SDS011;75286;52.218;5.180;2024-03-17T06:13:14;11.68;;;6.05;;
84923;SDS011;75286;52.218;5.180;2024-03-17T06:15:42;10.55;;;5.38;;
84923;SDS011;75286;52.218;5.180;2024-03-17T06:18:09;10.90;;;5.57;;
84923;SDS011;75286;52.218;5.180;2024-03-17T06:20:42;10.88;;;4.80;;
84923;SDS011;75286;52.218;5.180;2024-03-17T06:23:11;8.93;;;5.68;;
84923;SDS011;75286;52.218;5.180;2024-03-17T06:25:39;9.95;;;5.60;;
84923;SDS011;75286;52.218;5.180;2024-03-17T06:28:05;10.48;;;5.60;;
84923;SDS011;75286;52.218;5.180;2024-03-17T06:30:31;12.57;;;5.35;;
84923;SDS011;75286;52.218;5.180;2024-03-17T06:32:58;10.60;;;5.95;;
84923;SDS011;75286;52.218;5.180;2024-03-17T06:35:23;8.80;;;5.45;;
84923;SDS011;75286;52.218;5.180;2024-03-17T06:37:51;11.75;;;5.20;;
84923;SDS011;75286;52.218;5.180;2024-03-17T06:40:19;10.75;;;5.13;;
84923;SDS011;75286;52.218;5.180;2024-03-17T06:42:45;8.07;;;5.00;;
84923;SDS011;75286;52.218;5.180;2024-03-17T06:45:11;9.52;;;5.70;;
84923;SDS011;75286;52.218;5.180;2024-03-17T06:47:37;8.85;;;5.13;;
84923;SDS011;75286;52.218;5.180;2024-03-17T06:50:03;8.98;;;5.07;;
84923;SDS011;75286;52.218;5.180;2024-03-17T06:52:30;10.00;;;5.03;;
84923;SDS011;75286;52.218;5.180;2024-03-17T06:54:58;9.05;;;5.70;;
84923;SDS011;75286;52.218;5.180;2024-03-17T06:57:24;9.70;;;5.65;;
84923;SDS011;75286;52.218;5.180;2024-03-17T06:59:50;9.82;;;5.97;;
84923;SDS011;75286;52.218;5.180;2024-03-17T07:02:16;12.30;;;6.32;;
84923;SDS011;75286;52.218;5.180;2024-03-17T07:04:45;10.43;;;5.65;;
84923;SDS011;75286;52.218;5.180;2024-03-17T07:07:11;8.82;;;6.07;;
84923;SDS011;75286;52.218;5.180;2024-03-17T07:09:37;10.85;;;6.30;;
84923;SDS011;75286;52.218;5.180;2024-03-17T07:12:04;10.15;;;6.07;;
84923;SDS011;75286;52.218;5.180;2024-03-17T07:14:31;11.32;;;6.28;;
84923;SDS011;75286;52.218;5.180;2024-03-17T07:16:57;9.82;;;6.68;;
84923;SDS011;75286;52.218;5.180;2024-03-17T07:19:22;10.00;;;5.68;;
84923;SDS011;75286;52.218;5.180;2024-03-17T07:21:47;10.68;;;5.63;;
84923;SDS011;75286;52.218;5.180;2024-03-17T07:24:13;10.23;;;5.85;;
84923;SDS011;75286;52.218;5.180;2024-03-17T07:26:38;11.15;;;5.88;;
84923;SDS011;75286;52.218;5.180;2024-03-17T07:29:03;11.45;;;5.95;;
84923;SDS011;75286;52.218;5.180;2024-03-17T07:31:29;9.15;;;5.65;;
84923;SDS011;75286;52.218;5.180;2024-03-17T07:33:54;10.30;;;5.75;;
84923;SDS011;75286;52.218;5.180;2024-03-17T07:36:23;10.45;;;6.05;;
84923;SDS011;75286;52.218;5.180;2024-03-17T07:38:48;8.30;;;5.43;;
84923;SDS011;75286;52.218;5.180;2024-03-17T07:41:14;12.05;;;6.38;;
84923;SDS011;75286;52.218;5.180;2024-03-17T07:43:39;10.88;;;6.38;;
84923;SDS011;75286;52.218;5.180;2024-03-17T07:46:08;11.57;;;6.45;;
84923;SDS011;75286;52.218;5.180;2024-03-17T07:48:37;10.80;;;6.45;;
84923;SDS011;75286;52.218;5.180;2024-03-17T07:51:04;9.38;;;5.63;;
84923;SDS011;75286;52.218;5.180;2024-03-17T07:53:35;11.23;;;6.57;;
84923;SDS011;75286;52.218;5.180;2024-03-17T07:58:29;10.27;;;6.72;;
84923;SDS011;75286;52.218;5.180;2024-03-17T08:01:00;11.77;;;6.53;;
84923;SDS011;75286;52.218;5.180;2024-03-17T08:03:27;10.40;;;6.38;;
84923;SDS011;75286;52.218;5.180;2024-03-17T08:05:53;11.25;;;6.68;;
84923;SDS011;75286;52.218;5.180;2024-03-17T08:08:19;9.77;;;6.32;;
84923;SDS011;75286;52.218;5.180;2024-03-17T08:10:44;11.27;;;7.03;;
84923;SDS011;75286;52.218;5.180;2024-03-17T08:13:13;12.50;;;7.18;;
84923;SDS011;75286;52.218;5.180;2024-03-17T08:18:39;13.10;;;7.03;;
84923;SDS011;75286;52.218;5.180;2024-03-17T08:21:05;9.00;;;6.00;;
84923;SDS011;75286;52.218;5.180;2024-03-17T08:23:31;10.43;;;6.50;;
84923;SDS011;75286;52.218;5.180;2024-03-17T08:25:58;10.63;;;6.35;;
84923;SDS011;75286;52.218;5.180;2024-03-17T08:28:24;8.75;;;5.97;;
84923;SDS011;75286;52.218;5.180;2024-03-17T08:30:55;11.52;;;6.80;;
84923;SDS011;75286;52.218;5.180;2024-03-17T08:33:24;11.02;;;6.60;;
84923;SDS011;75286;52.218;5.180;2024-03-17T08:36:03;11.98;;;7.50;;
84923;SDS011;75286;52.218;5.180;2024-03-17T08:38:36;12.88;;;6.07;;
84923;SDS011;75286;52.218;5.180;2024-03-17T08:41:02;10.32;;;6.45;;
84923;SDS011;75286;52.218;5.180;2024-03-17T08:43:30;12.57;;;7.10;;
84923;SDS011;75286;52.218;5.180;2024-03-17T08:45:56;11.30;;;6.57;;
84923;SDS011;75286;52.218;5.180;2024-03-17T08:48:27;11.45;;;7.18;;
84923;SDS011;75286;52.218;5.180;2024-03-17T08:50:54;14.90;;;7.00;;
84923;SDS011;75286;52.218;5.180;2024-03-17T08:53:20;15.90;;;8.02;;
84923;SDS011;75286;52.218;5.180;2024-03-17T08:55:46;12.43;;;6.90;;
84923;SDS011;75286;52.218;5.180;2024-03-17T08:58:12;10.65;;;7.13;;
84923;SDS011;75286;52.218;5.180;2024-03-17T09:00:37;11.38;;;7.10;;
84923;SDS011;75286;52.218;5.180;2024-03-17T09:03:03;11.02;;;6.80;;
84923;SDS011;75286;52.218;5.180;2024-03-17T09:05:29;10.68;;;6.18;;
84923;SDS011;75286;52.218;5.180;2024-03-17T09:07:54;11.18;;;5.93;;
84923;SDS011;75286;52.218;5.180;2024-03-17T09:10:20;11.35;;;6.13;;
84923;SDS011;75286;52.218;5.180;2024-03-17T09:12:46;14.15;;;7.45;;
84923;SDS011;75286;52.218;5.180;2024-03-17T09:15:12;10.45;;;7.18;;
84923;SDS011;75286;52.218;5.180;2024-03-17T09:17:38;10.40;;;6.60;;
84923;SDS011;75286;52.218;5.180;2024-03-17T09:20:04;10.18;;;6.85;;
84923;SDS011;75286;52.218;5.180;2024-03-17T09:22:35;12.57;;;6.95;;
84923;SDS011;75286;52.218;5.180;2024-03-17T09:25:00;10.82;;;7.13;;
84923;SDS011;75286;52.218;5.180;2024-03-17T09:27:26;10.35;;;6.05;;
84923;SDS011;75286;52.218;5.180;2024-03-17T09:29:51;12.65;;;8.07;;
84923;SDS011;75286;52.218;5.180;2024-03-17T09:32:17;12.70;;;7.55;;
84923;SDS011;75286;52.218;5.180;2024-03-17T09:34:46;10.77;;;6.18;;
84923;SDS011;75286;52.218;5.180;2024-03-17T09:37:13;13.25;;;7.30;;
84923;SDS011;75286;52.218;5.180;2024-03-17T09:39:39;11.20;;;6.38;;
84923;SDS011;75286;52.218;5.180;2024-03-17T09:42:04;11.82;;;7.55;;
84923;SDS011;75286;52.218;5.180;2024-03-17T09:44:32;9.90;;;7.03;;
84923;SDS011;75286;52.218;5.180;2024-03-17T09:46:59;10.38;;;6.75;;
84923;SDS011;75286;52.218;5.180;2024-03-17T09:49:26;10.75;;;6.72;;
84923;SDS011;75286;52.218;5.180;2024-03-17T09:51:51;11.02;;;6.43;;
84923;SDS011;75286;52.218;5.180;2024-03-17T09:54:21;9.85;;;6.57;;
84923;SDS011;75286;52.218;5.180;2024-03-17T09:56:46;10.55;;;6.65;;
84923;SDS011;75286;52.218;5.180;2024-03-17T09:59:12;13.23;;;7.25;;
84923;SDS011;75286;52.218;5.180;2024-03-17T10:01:37;13.20;;;6.68;;
84923;SDS011;75286;52.218;5.180;2024-03-17T10:04:03;12.75;;;7.00;;
84923;SDS011;75286;52.218;5.180;2024-03-17T10:06:44;11.63;;;6.57;;
84923;SDS011;75286;52.218;5.180;2024-03-17T10:09:13;9.63;;;6.18;;
84923;SDS011;75286;52.218;5.180;2024-03-17T10:11:46;10.02;;;6.30;;
84923;SDS011;75286;52.218;5.180;2024-03-17T10:14:12;9.68;;;6.00;;
84923;SDS011;75286;52.218;5.180;2024-03-17T10:16:41;11.63;;;6.85;;
84923;SDS011;75286;52.218;5.180;2024-03-17T10:19:22;9.93;;;5.75;;
84923;SDS011;75286;52.218;5.180;2024-03-17T10:21:49;10.23;;;6.28;;
84923;SDS011;75286;52.218;5.180;2024-03-17T10:24:25;15.00;;;7.13;;
84923;SDS011;75286;52.218;5.180;2024-03-17T10:26:57;11.75;;;7.05;;
84923;SDS011;75286;52.218;5.180;2024-03-17T10:29:24;11.50;;;6.68;;
84923;SDS011;75286;52.218;5.180;2024-03-17T10:31:55;10.23;;;6.38;;
84923;SDS011;75286;52.218;5.180;2024-03-17T10:34:25;11.40;;;6.90;;
84923;SDS011;75286;52.218;5.180;2024-03-17T10:39:48;10.88;;;6.28;;
84923;SDS011;75286;52.218;5.180;2024-03-17T10:42:20;11.70;;;6.28;;
84923;SDS011;75286;52.218;5.180;2024-03-17T10:44:50;11.38;;;6.03;;
84923;SDS011;75286;52.218;5.180;2024-03-17T10:47:23;9.77;;;5.75;;
84923;SDS011;75286;52.218;5.180;2024-03-17T10:49:53;9.65;;;5.32;;
84923;SDS011;75286;52.218;5.180;2024-03-17T10:56:07;9.93;;;5.78;;
84923;SDS011;75286;52.218;5.180;2024-03-17T11:01:06;10.85;;;5.25;;
84923;SDS011;75286;52.218;5.180;2024-03-17T11:03:32;10.70;;;5.40;;
84923;SDS011;75286;52.218;5.180;2024-03-17T11:06:03;11.30;;;5.28;;
84923;SDS011;75286;52.218;5.180;2024-03-17T11:08:30;11.50;;;6.05;;
84923;SDS011;75286;52.218;5.180;2024-03-17T11:10:58;8.70;;;5.72;;
84923;SDS011;75286;52.218;5.180;2024-03-17T11:13:24;9.55;;;4.90;;
84923;SDS011;75286;52.218;5.180;2024-03-17T11:15:51;10.73;;;6.32;;
84923;SDS011;75286;52.218;5.180;2024-03-17T11:20:57;8.55;;;5.00;;
84923;SDS011;75286;52.218;5.180;2024-03-17T11:23:30;9.68;;;4.38;;
84923;SDS011;75286;52.218;5.180;2024-03-17T11:29:23;8.18;;;4.28;;
84923;SDS011;75286;52.218;5.180;2024-03-17T11:34:26;12.63;;;5.22;;
84923;SDS011;75286;52.218;5.180;2024-03-17T11:36:56;10.65;;;4.70;;
84923;SDS011;75286;52.218;5.180;2024-03-17T11:42:20;12.88;;;5.45;;
84923;SDS011;75286;52.218;5.180;2024-03-17T11:48:35;10.10;;;5.30;;
84923;SDS011;75286;52.218;5.180;2024-03-17T11:51:00;8.52;;;5.28;;
84923;SDS011;75286;52.218;5.180;2024-03-17T11:53:26;10.05;;;4.88;;
84923;SDS011;75286;52.218;5.180;2024-03-17T11:55:53;8.50;;;4.80;;
84923;SDS011;75286;52.218;5.180;2024-03-17T11:58:18;8.93;;;5.30;;
84923;SDS011;75286;52.218;5.180;2024-03-17T12:00:44;9.90;;;5.53;;
84923;SDS011;75286;52.218;5.180;2024-03-17T12:03:16;9.85;;;5.10;;
84923;SDS011;75286;52.218;5.180;2024-03-17T12:05:45;13.05;;;5.55;;
84923;SDS011;75286;52.218;5.180;2024-03-17T12:08:19;10.98;;;6.25;;
84923;SDS011;75286;52.218;5.180;2024-03-17T12:14:21;9.80;;;5.30;;
84923;SDS011;75286;52.218;5.180;2024-03-17T12:16:51;10.68;;;5.32;;
84923;SDS011;75286;52.218;5.180;2024-03-17T12:22:14;12.13;;;6.15;;
84923;SDS011;75286;52.218;5.180;2024-03-17T12:24:42;10.35;;;6.10;;
84923;SDS011;75286;52.218;5.180;2024-03-17T12:27:09;11.82;;;6.07;;
84923;SDS011;75286;52.218;5.180;2024-03-17T12:29:42;11.05;;;5.97;;
84923;SDS011;75286;52.218;5.180;2024-03-17T12:32:23;8.98;;;6.05;;
84923;SDS011;75286;52.218;5.180;2024-03-17T12:37:21;12.38;;;6.10;;
84923;SDS011;75286;52.218;5.180;2024-03-17T12:39:52;13.32;;;6.03;;
84923;SDS011;75286;52.218;5.180;2024-03-17T12:42:23;11.48;;;5.85;;
84923;SDS011;75286;52.218;5.180;2024-03-17T12:47:31;11.85;;;6.50;;
84923;SDS011;75286;52.218;5.180;2024-03-17T12:53:06;11.30;;;6.15;;
84923;SDS011;75286;52.218;5.180;2024-03-17T13:02:44;10.13;;;5.97;;
84923;SDS011;75286;52.218;5.180;2024-03-17T13:07:46;11.57;;;6.75;;
84923;SDS011;75286;52.218;5.180;2024-03-17T13:10:16;12.65;;;6.88;;
84923;SDS011;75286;52.218;5.180;2024-03-17T13:12:42;11.50;;;6.93;;
84923;SDS011;75286;52.218;5.180;2024-03-17T13:15:16;12.07;;;6.55;;
84923;SDS011;75286;52.218;5.180;2024-03-17T13:17:42;13.48;;;7.38;;
84923;SDS011;75286;52.218;5.180;2024-03-17T13:20:12;12.45;;;6.88;;
84923;SDS011;75286;52.218;5.180;2024-03-17T13:25:30;10.27;;;6.55;;
84923;SDS011;75286;52.218;5.180;2024-03-17T13:31:21;10.80;;;7.03;;
84923;SDS011;75286;52.218;5.180;2024-03-17T13:33:47;12.52;;;6.25;;
84923;SDS011;75286;52.218;5.180;2024-03-17T13:36:16;10.68;;;6.25;;
84923;SDS011;75286;52.218;5.180;2024-03-17T13:38:41;11.57;;;7.90;;
84923;SDS011;75286;52.218;5.180;2024-03-17T13:44:54;9.07;;;5.97;;
84923;SDS011;75286;52.218;5.180;2024-03-17T13:47:21;10.60;;;6.43;;
84923;SDS011;75286;52.218;5.180;2024-03-17T13:52:39;12.07;;;6.43;;
84923;SDS011;75286;52.218;5.180;2024-03-17T13:55:05;12.60;;;6.90;;
84923;SDS011;75286;52.218;5.180;2024-03-17T14:00:20;11.60;;;6.25;;
84923;SDS011;75286;52.218;5.180;2024-03-17T14:02:46;11.02;;;6.82;;
84923;SDS011;75286;52.218;5.180;2024-03-17T14:05:14;10.77;;;6.18;;
84923;SDS011;75286;52.218;5.180;2024-03-17T14:07:41;13.40;;;6.90;;
84923;SDS011;75286;52.218;5.180;2024-03-17T14:13:40;10.43;;;5.75;;
84923;SDS011;75286;52.218;5.180;2024-03-17T14:19:00;12.80;;;7.43;;
84923;SDS011;75286;52.218;5.180;2024-03-17T14:21:29;11.10;;;5.93;;
84923;SDS011;75286;52.218;5.180;2024-03-17T14:23:55;9.98;;;6.00;;
84923;SDS011;75286;52.218;5.180;2024-03-17T14:26:21;12.65;;;6.38;;
84923;SDS011;75286;52.218;5.180;2024-03-17T14:28:47;12.25;;;6.03;;
84923;SDS011;75286;52.218;5.180;2024-03-17T14:31:14;11.27;;;6.13;;
84923;SDS011;75286;52.218;5.180;2024-03-17T14:33:39;10.05;;;6.20;;
84923;SDS011;75286;52.218;5.180;2024-03-17T14:36:04;11.40;;;5.00;;
84923;SDS011;75286;52.218;5.180;2024-03-17T14:38:31;10.27;;;5.70;;
84923;SDS011;75286;52.218;5.180;2024-03-17T14:40:57;9.90;;;6.05;;
84923;SDS011;75286;52.218;5.180;2024-03-17T14:43:22;11.65;;;5.93;;
84923;SDS011;75286;52.218;5.180;2024-03-17T14:45:48;9.40;;;5.88;;
84923;SDS011;75286;52.218;5.180;2024-03-17T14:48:14;11.70;;;7.05;;
84923;SDS011;75286;52.218;5.180;2024-03-17T14:50:39;11.38;;;6.07;;
84923;SDS011;75286;52.218;5.180;2024-03-17T14:53:05;10.43;;;6.10;;
84923;SDS011;75286;52.218;5.180;2024-03-17T14:55:31;10.98;;;6.03;;
84923;SDS011;75286;52.218;5.180;2024-03-17T14:57:56;11.85;;;5.95;;
84923;SDS011;75286;52.218;5.180;2024-03-17T15:00:22;9.38;;;4.88;;
84923;SDS011;75286;52.218;5.180;2024-03-17T15:02:50;11.52;;;6.63;;
84923;SDS011;75286;52.218;5.180;2024-03-17T15:05:17;9.55;;;6.03;;
84923;SDS011;75286;52.218;5.180;2024-03-17T15:07:50;7.97;;;4.43;;
84923;SDS011;75286;52.218;5.180;2024-03-17T15:10:16;10.75;;;5.03;;
84923;SDS011;75286;52.218;5.180;2024-03-17T15:12:48;9.13;;;5.67;;
84923;SDS011;75286;52.218;5.180;2024-03-17T15:15:14;10.38;;;5.55;;
84923;SDS011;75286;52.218;5.180;2024-03-17T15:17:39;10.02;;;6.07;;
84923;SDS011;75286;52.218;5.180;2024-03-17T15:20:06;9.85;;;6.05;;
84923;SDS011;75286;52.218;5.180;2024-03-17T15:22:58;10.38;;;5.68;;
84923;SDS011;75286;52.218;5.180;2024-03-17T15:25:24;11.15;;;5.93;;
84923;SDS011;75286;52.218;5.180;2024-03-17T15:30:19;9.82;;;5.88;;
84923;SDS011;75286;52.218;5.180;2024-03-17T15:32:47;12.32;;;5.53;;
84923;SDS011;75286;52.218;5.180;2024-03-17T15:35:13;11.48;;;5.75;;
84923;SDS011;75286;52.218;5.180;2024-03-17T15:37:40;8.88;;;5.07;;
84923;SDS011;75286;52.218;5.180;2024-03-17T15:40:08;14.68;;;6.30;;
84923;SDS011;75286;52.218;5.180;2024-03-17T15:42:45;9.73;;;5.22;;
84923;SDS011;75286;52.218;5.180;2024-03-17T15:45:12;10.68;;;5.00;;
84923;SDS011;75286;52.218;5.180;2024-03-17T15:47:37;8.30;;;5.15;;
84923;SDS011;75286;52.218;5.180;2024-03-17T15:50:03;9.75;;;5.53;;
84923;SDS011;75286;52.218;5.180;2024-03-17T15:52:29;9.15;;;5.20;;
84923;SDS011;75286;52.218;5.180;2024-03-17T15:54:55;10.13;;;5.20;;
84923;SDS011;75286;52.218;5.180;2024-03-17T15:57:21;9.15;;;5.30;;